createdAt,value
2024-02-20T00:01:43.970Z,7.14
2024-02-20T00:04:53.715Z,7.13
2024-02-20T00:08:04.366Z,7.10
2024-02-20T00:11:12.232Z,7.15
2024-02-20T00:14:18.048Z,7.12
2024-02-20T00:17:24.566Z,7.11
2024-02-20T00:20:33.088Z,7.13
2024-02-20T00:23:39.589Z,7.16
2024-02-20T00:26:48.708Z,7.15
2024-02-20T00:29:55.239Z,7.16
2024-02-20T00:33:00.857Z,7.14
2024-02-20T00:36:11.290Z,7.18
2024-02-20T00:39:17.512Z,7.24
2024-02-20T00:42:26.683Z,7.29
2024-02-20T00:45:32.920Z,7.29
2024-02-20T00:48:39.501Z,7.28
2024-02-20T00:51:47.799Z,7.29
2024-02-20T00:54:54.339Z,7.29
2024-02-20T00:58:01.472Z,7.32
2024-02-20T01:01:11.639Z,7.34
2024-02-20T01:04:17.631Z,7.34
2024-02-20T01:07:27.088Z,7.36
2024-02-20T01:10:32.891Z,7.46
2024-02-20T01:13:39.694Z,7.53
2024-02-20T01:16:45.391Z,7.62
2024-02-20T01:19:52.118Z,7.65
2024-02-20T01:23:00.733Z,7.69
2024-02-20T01:26:08.116Z,7.72
2024-02-20T01:29:14.563Z,7.78
2024-02-20T01:32:21.031Z,7.81
2024-02-20T01:35:26.678Z,7.80
2024-02-20T01:38:36.251Z,7.76
2024-02-20T01:41:41.982Z,7.72
2024-02-20T01:44:49.341Z,7.68
2024-02-20T01:47:55.351Z,7.66
2024-02-20T01:51:02.068Z,7.60
2024-02-20T01:54:11.086Z,7.57
2024-02-20T01:57:18.796Z,7.56
2024-02-20T02:00:25.156Z,7.67
2024-02-20T02:03:32.177Z,7.63
2024-02-20T02:06:42.969Z,7.59
2024-02-20T02:09:52.076Z,7.56
2024-02-20T02:12:57.785Z,7.56
2024-02-20T02:16:04.417Z,7.55
2024-02-20T02:19:10.390Z,7.50
2024-02-20T02:22:16.992Z,7.49
2024-02-20T02:25:25.694Z,7.49
2024-02-20T02:28:34.845Z,7.48
2024-02-20T02:31:40.600Z,7.43
2024-02-20T02:34:48.354Z,7.44
2024-02-20T02:37:54.157Z,7.49
2024-02-20T02:41:00.964Z,7.57
2024-02-20T02:44:09.779Z,7.62
2024-02-20T02:47:16.377Z,7.67
2024-02-20T02:50:22.330Z,7.75
2024-02-20T02:53:28.956Z,7.77
2024-02-20T02:56:35.170Z,7.84
2024-02-20T02:59:44.242Z,7.80
2024-02-20T03:02:50.767Z,7.69
2024-02-20T03:05:57.780Z,7.68
2024-02-20T03:09:06.794Z,7.61
2024-02-20T03:12:13.264Z,7.55
2024-02-20T03:15:21.762Z,7.53
2024-02-20T03:18:28.292Z,7.53
2024-02-20T03:21:34.395Z,7.55
2024-02-20T03:24:41.699Z,7.58
2024-02-20T03:27:48.825Z,7.65
2024-02-20T03:30:58.404Z,7.69
2024-02-20T03:34:04.792Z,7.73
2024-02-20T03:37:11.305Z,7.73
2024-02-20T03:40:17.628Z,7.66
2024-02-20T03:43:24.346Z,7.60
2024-02-20T03:46:32.738Z,7.48
2024-02-20T03:49:39.661Z,7.45
2024-02-20T03:52:45.394Z,7.42
2024-02-20T03:55:52.380Z,7.37
2024-02-20T03:58:58.324Z,7.35
2024-02-20T04:02:08.273Z,7.34
2024-02-20T04:05:18.935Z,7.27
2024-02-20T04:08:27.648Z,7.23
2024-02-20T04:11:33.497Z,7.22
2024-02-20T04:14:40.273Z,7.15
2024-02-20T04:17:48.582Z,7.09
2024-02-20T04:20:55.304Z,7.07
2024-02-20T04:24:01.104Z,7.04
2024-02-20T04:27:08.169Z,7.05
2024-02-20T04:30:14.547Z,7.02
2024-02-20T04:33:26.347Z,7.01
2024-02-20T04:36:32.516Z,7.04
2024-02-20T04:39:39.057Z,7.03
2024-02-20T04:42:44.788Z,7.06
2024-02-20T04:45:51.851Z,7.08
2024-02-20T04:49:00.277Z,7.09
2024-02-20T04:52:07.579Z,7.09
2024-02-20T04:55:13.494Z,7.16
2024-02-20T04:58:20.318Z,7.18
2024-02-20T05:01:27.340Z,7.16
2024-02-20T05:04:36.538Z,7.15
2024-02-20T05:07:43.497Z,7.13
2024-02-20T05:10:50.196Z,7.19
2024-02-20T05:13:56.116Z,7.14
2024-02-20T05:17:02.650Z,7.16
2024-02-20T05:20:12.979Z,7.15
2024-02-20T05:23:19.646Z,7.11
2024-02-20T05:26:25.362Z,7.04
2024-02-20T05:29:32.103Z,6.97
2024-02-20T05:32:39.264Z,6.95
2024-02-20T05:35:48.927Z,6.97
2024-02-20T05:38:54.562Z,6.94
2024-02-20T05:42:01.213Z,6.98
2024-02-20T05:45:09.188Z,6.99
2024-02-20T05:48:16.560Z,6.97
2024-02-20T05:51:25.291Z,6.94
2024-02-20T05:54:31.935Z,6.93
2024-02-20T05:57:37.752Z,6.94
2024-02-20T06:00:44.291Z,6.95
2024-02-20T06:03:50.754Z,6.93
2024-02-20T06:07:00.061Z,6.90
2024-02-20T06:10:05.870Z,6.94
2024-02-20T06:13:12.731Z,6.99
2024-02-20T06:16:18.421Z,7.03
2024-02-20T06:19:25.089Z,7.04
2024-02-20T06:22:34.050Z,7.09
2024-02-20T06:25:40.954Z,7.15
2024-02-20T06:28:46.753Z,7.15
2024-02-20T06:31:54.536Z,7.11
2024-02-20T06:35:00.252Z,7.14
2024-02-20T06:38:09.388Z,7.06
2024-02-20T06:41:15.708Z,7.04
2024-02-20T06:44:22.133Z,6.99
2024-02-20T06:47:28.522Z,6.94
2024-02-20T06:50:35.120Z,6.92
2024-02-20T06:53:49.259Z,6.87
2024-02-20T06:56:56.672Z,6.80
2024-02-20T07:00:02.420Z,6.78
2024-02-20T07:03:11.129Z,6.75
2024-02-20T07:06:17.011Z,6.69
2024-02-20T07:09:27.434Z,6.67
2024-02-20T07:12:33.286Z,6.64
2024-02-20T07:15:42.339Z,6.63
2024-02-20T07:18:48.035Z,6.58
2024-02-20T07:21:54.655Z,6.58
2024-02-20T07:25:03.381Z,6.58
2024-02-20T07:28:12.362Z,6.57
2024-02-20T07:31:25.813Z,6.59
2024-02-20T07:34:32.404Z,6.58
2024-02-20T07:37:39.171Z,6.61
2024-02-20T07:40:48.659Z,6.64
2024-02-20T07:43:54.610Z,6.65
2024-02-20T07:47:01.183Z,6.64
2024-02-20T07:50:08.174Z,6.66
2024-02-20T07:53:14.789Z,6.69
2024-02-20T07:56:30.530Z,6.72
2024-02-20T07:59:37.037Z,6.81
2024-02-20T08:02:42.895Z,6.83
2024-02-20T08:05:49.579Z,6.82
2024-02-20T08:08:55.337Z,6.86
2024-02-20T08:12:04.337Z,6.91
2024-02-20T08:15:11.705Z,6.88
2024-02-20T08:18:18.959Z,6.89
2024-02-20T08:21:24.722Z,6.94
2024-02-20T08:24:31.184Z,6.95
2024-02-20T08:27:39.498Z,6.95
2024-02-20T08:30:47.185Z,6.97
2024-02-20T08:33:53.636Z,7.01
2024-02-20T08:37:00.169Z,7.07
2024-02-20T08:40:06.067Z,7.12
2024-02-20T08:43:16.880Z,7.18
2024-02-20T08:46:23.098Z,7.21
2024-02-20T08:49:32.220Z,7.24
2024-02-20T08:52:38.729Z,7.28
2024-02-20T08:55:45.508Z,7.29
2024-02-20T08:59:01.372Z,7.25
2024-02-20T09:02:08.022Z,7.23
2024-02-20T09:05:14.348Z,7.21
2024-02-20T09:08:22.336Z,7.27
2024-02-20T09:11:28.200Z,7.31
2024-02-20T09:14:37.545Z,7.35
2024-02-20T09:17:44.418Z,7.39
2024-02-20T09:20:51.801Z,7.45
2024-02-20T09:23:58.294Z,7.50
2024-02-20T09:27:06.787Z,7.52
2024-02-20T09:30:16.231Z,7.56
2024-02-20T09:33:23.069Z,7.62
2024-02-20T09:36:29.390Z,7.66
2024-02-20T09:39:36.004Z,7.68
2024-02-20T09:42:47.148Z,7.71
2024-02-20T09:46:00.795Z,7.80
2024-02-20T09:49:07.534Z,7.88
2024-02-20T09:52:16.247Z,7.96
2024-02-20T09:55:23.414Z,8.02
2024-02-20T09:58:33.598Z,8.07
2024-02-20T10:01:43.233Z,8.13
2024-02-20T10:04:51.239Z,8.07
2024-02-20T10:08:04.623Z,8.09
2024-02-20T10:11:11.347Z,8.12
2024-02-20T10:14:17.160Z,8.14
2024-02-20T10:17:26.683Z,8.16
2024-02-20T10:20:34.186Z,8.07
2024-02-20T10:23:40.745Z,8.16
2024-02-20T10:26:48.995Z,8.15
2024-02-20T10:29:57.652Z,8.18
2024-02-20T10:33:06.483Z,8.26
2024-02-20T10:36:13.549Z,8.30
2024-02-20T10:39:20.886Z,8.32
2024-02-20T10:42:27.719Z,8.36
2024-02-20T10:45:33.479Z,8.39
2024-02-20T10:48:48.608Z,8.46
2024-02-20T10:51:59.057Z,8.59
2024-02-20T10:55:23.128Z,8.73
2024-02-20T10:58:41.550Z,8.84
2024-02-20T11:01:48.313Z,8.98
2024-02-20T11:04:56.759Z,9.14
2024-02-20T11:08:12.147Z,9.21
2024-02-20T11:11:20.715Z,9.32
2024-02-20T11:14:30.872Z,9.37
2024-02-20T11:17:38.640Z,9.41
2024-02-20T11:20:48.554Z,9.46
2024-02-20T11:23:54.280Z,9.58
2024-02-20T11:27:07.140Z,9.56
2024-02-20T11:30:22.318Z,9.57
2024-02-20T11:33:34.056Z,9.52
2024-02-20T11:36:47.794Z,9.56
2024-02-20T11:39:54.536Z,9.59
2024-02-20T11:43:04.669Z,9.58
2024-02-20T11:46:11.303Z,9.61
2024-02-20T11:49:26.452Z,9.66
2024-02-20T11:52:35.704Z,9.68
2024-02-20T11:55:46.576Z,9.70
2024-02-20T11:58:59.659Z,9.72
2024-02-20T12:02:05.825Z,9.74
2024-02-20T12:05:12.950Z,9.72
2024-02-20T12:08:22.151Z,9.66
2024-02-20T12:11:31.606Z,9.67
2024-02-20T12:14:37.390Z,9.71
2024-02-20T12:17:45.162Z,9.76
2024-02-20T12:20:50.883Z,9.80
2024-02-20T12:24:09.083Z,9.84
2024-02-20T12:27:17.158Z,9.90
2024-02-20T12:30:25.023Z,10.00
2024-02-20T12:33:31.760Z,10.03
2024-02-20T12:36:39.772Z,10.04
2024-02-20T12:39:49.078Z,10.09
2024-02-20T12:42:55.709Z,10.08
2024-02-20T12:46:02.055Z,10.08
2024-02-20T12:49:10.083Z,10.12
2024-02-20T12:52:16.032Z,10.17
2024-02-20T12:55:25.315Z,10.23
2024-02-20T12:58:31.242Z,10.27
2024-02-20T13:01:38.160Z,10.33
2024-02-20T13:04:44.007Z,10.34
2024-02-20T13:07:51.060Z,10.38
2024-02-20T13:10:59.603Z,10.34
2024-02-20T13:14:06.579Z,10.19
2024-02-20T13:17:12.375Z,10.03
2024-02-20T13:20:19.106Z,9.88
2024-02-20T13:23:24.949Z,9.77
2024-02-20T13:30:55.073Z,9.73
2024-02-20T13:34:02.150Z,9.72
2024-02-20T13:37:08.481Z,9.77
2024-02-20T13:40:16.430Z,9.89
2024-02-20T13:43:22.323Z,9.98
2024-02-20T13:46:31.461Z,9.89
2024-02-20T13:49:37.748Z,9.88
2024-02-20T13:52:44.417Z,9.97
2024-02-20T13:55:54.115Z,10.01
2024-02-20T13:59:00.789Z,10.06
2024-02-20T14:02:11.343Z,10.15
2024-02-20T14:05:18.707Z,10.21
2024-02-20T14:08:26.065Z,10.24
2024-02-20T14:11:32.692Z,10.22
2024-02-20T14:14:38.644Z,10.25
2024-02-20T14:17:50.958Z,10.15
2024-02-20T14:21:00.973Z,10.02
2024-02-20T14:24:08.225Z,9.87
2024-02-20T14:27:13.955Z,9.82
2024-02-20T14:30:21.072Z,9.75
2024-02-20T14:33:29.712Z,9.67
2024-02-20T14:36:36.773Z,9.69
2024-02-20T14:39:43.031Z,9.66
2024-02-20T14:42:49.718Z,9.58
2024-02-20T14:45:55.416Z,9.53
2024-02-20T14:49:04.779Z,9.48
2024-02-20T14:52:11.084Z,9.44
2024-02-20T14:55:18.371Z,9.47
2024-02-20T14:58:24.284Z,9.43
2024-02-20T15:01:30.956Z,9.34
2024-02-20T15:04:40.315Z,9.28
2024-02-20T15:07:47.215Z,9.29
2024-02-20T15:10:53.136Z,9.29
2024-02-20T15:13:59.995Z,9.23
2024-02-20T15:17:08.644Z,9.21
2024-02-20T15:20:18.273Z,9.22
2024-02-20T15:23:24.345Z,9.15
2024-02-20T15:26:30.922Z,9.13
2024-02-20T15:29:36.667Z,9.12
2024-02-20T15:32:43.883Z,9.12
2024-02-20T15:35:52.686Z,9.08
2024-02-20T15:38:59.167Z,9.04
2024-02-20T15:42:06.663Z,9.04
2024-02-20T15:45:14.187Z,8.97
2024-02-20T15:48:21.741Z,8.99
2024-02-20T15:51:33.944Z,8.90
2024-02-20T15:54:39.724Z,8.82
2024-02-20T15:57:46.335Z,8.80
2024-02-20T16:00:56.348Z,8.80
2024-02-20T16:04:03.423Z,8.77
2024-02-20T16:07:11.791Z,8.77
2024-02-20T16:10:22.742Z,8.77
2024-02-20T16:13:28.540Z,8.75
2024-02-20T16:16:35.521Z,8.74
2024-02-20T16:19:41.397Z,8.79
2024-02-20T16:22:50.624Z,8.77
2024-02-20T16:25:57.280Z,8.81
2024-02-20T16:29:04.469Z,8.80
2024-02-20T16:32:10.949Z,8.77
2024-02-20T16:35:17.430Z,8.74
2024-02-20T16:38:31.071Z,8.78
2024-02-20T16:41:39.744Z,8.81
2024-02-20T16:44:45.961Z,8.83
2024-02-20T16:47:52.649Z,8.84
2024-02-20T16:50:58.328Z,8.84
2024-02-20T16:54:07.716Z,8.85
2024-02-20T16:57:14.749Z,8.83
2024-02-20T17:00:23.677Z,8.80
2024-02-20T17:03:29.456Z,8.72
2024-02-20T17:06:36.052Z,8.65
2024-02-20T17:09:44.507Z,8.61
2024-02-20T17:12:51.449Z,8.54
2024-02-20T17:15:57.177Z,8.44
2024-02-20T17:19:03.666Z,8.40
2024-02-20T17:22:09.534Z,8.33
2024-02-20T17:25:19.012Z,8.23
2024-02-20T17:28:24.979Z,8.17
2024-02-20T17:31:32.629Z,8.13
2024-02-20T17:34:38.476Z,8.06
2024-02-20T17:37:45.297Z,8.07
2024-02-20T17:40:53.750Z,7.96
2024-02-20T17:44:00.370Z,7.98
2024-02-20T17:47:09.156Z,8.01
2024-02-20T17:50:15.817Z,8.05
2024-02-20T17:53:21.688Z,8.08
2024-02-20T17:56:31.180Z,8.08
2024-02-20T17:59:36.989Z,8.03
2024-02-20T18:02:44.047Z,7.98
2024-02-20T18:05:49.838Z,7.94
2024-02-20T18:08:56.438Z,7.93
2024-02-20T18:12:04.806Z,7.92
2024-02-20T18:15:13.668Z,7.90
2024-02-20T18:18:19.756Z,7.95
2024-02-20T18:21:26.338Z,7.99
2024-02-20T18:24:32.081Z,8.07
2024-02-20T18:27:41.480Z,8.09
2024-02-20T18:30:47.270Z,8.13
2024-02-20T18:33:54.356Z,8.11
2024-02-20T18:37:00.131Z,8.04
2024-02-20T18:40:09.078Z,7.96
2024-02-20T18:43:17.423Z,7.90
2024-02-20T18:46:24.488Z,7.85
2024-02-20T18:49:30.458Z,7.79
2024-02-20T18:52:37.928Z,7.77
2024-02-20T18:55:44.341Z,7.72
2024-02-20T18:58:53.595Z,7.68
2024-02-20T19:01:59.694Z,7.72
2024-02-20T19:05:07.217Z,7.78
2024-02-20T19:08:13.036Z,7.80
2024-02-20T19:11:19.879Z,7.82
2024-02-20T19:14:28.283Z,7.76
2024-02-20T19:17:35.003Z,7.79
2024-02-20T19:20:41.297Z,7.79
2024-02-20T19:23:47.711Z,7.78
2024-02-20T19:26:53.598Z,7.81
2024-02-20T19:30:02.641Z,7.82
2024-02-20T19:33:08.681Z,7.75
2024-02-20T19:36:15.285Z,7.66
2024-02-20T19:39:21.023Z,7.58
2024-02-20T19:42:27.471Z,7.55
2024-02-20T19:45:35.886Z,7.59
2024-02-20T19:48:42.642Z,7.53
2024-02-20T19:51:48.474Z,7.55
2024-02-20T19:54:54.950Z,7.57
2024-02-20T19:58:00.760Z,7.48
2024-02-20T20:01:10.317Z,7.43
2024-02-20T20:04:16.529Z,7.34
2024-02-20T20:07:23.120Z,7.32
2024-02-20T20:10:29.332Z,7.31
2024-02-20T20:13:35.735Z,7.25
2024-02-20T20:16:44.165Z,7.23
2024-02-20T20:19:50.647Z,7.25
2024-02-20T20:22:56.561Z,7.31
2024-02-20T20:26:03.303Z,7.32
2024-02-20T20:29:09.262Z,7.45
2024-02-20T20:32:20.137Z,7.55
2024-02-20T20:35:26.015Z,7.62
2024-02-20T20:38:35.520Z,7.55
2024-02-20T20:41:42.320Z,7.53
2024-02-20T20:44:50.349Z,7.44
2024-02-20T20:48:02.159Z,7.40
2024-02-20T20:51:09.050Z,7.34
2024-02-20T20:54:14.724Z,7.24
2024-02-20T20:57:23.185Z,7.15
2024-02-20T21:00:29.100Z,7.07
2024-02-20T21:03:40.439Z,7.12
2024-02-20T21:06:46.504Z,7.16
2024-02-20T21:09:52.738Z,7.16
2024-02-20T21:12:58.197Z,7.32
2024-02-20T21:16:07.311Z,7.36
2024-02-20T21:19:15.947Z,7.47
2024-02-20T21:22:22.236Z,7.47
2024-02-20T21:25:27.810Z,7.34
2024-02-20T21:28:34.153Z,7.30
2024-02-20T21:31:40.448Z,7.28
2024-02-20T21:34:49.305Z,7.24
2024-02-20T21:37:57.089Z,7.20
2024-02-20T21:41:07.286Z,7.17
2024-02-20T21:44:13.396Z,7.17
2024-02-20T21:47:19.648Z,7.17
2024-02-20T21:50:27.770Z,7.24
2024-02-20T21:53:33.905Z,7.29
2024-02-20T21:56:39.319Z,7.35
2024-02-20T21:59:46.444Z,7.41
2024-02-20T22:02:54.993Z,7.14
2024-02-20T22:06:09.453Z,7.33
2024-02-20T22:09:15.230Z,7.27
2024-02-20T22:12:21.430Z,7.19
2024-02-20T22:15:26.850Z,7.14
2024-02-20T22:18:33.393Z,7.07
2024-02-20T22:21:41.857Z,7.05
2024-02-20T22:24:48.578Z,7.02
2024-02-20T22:27:54.055Z,6.98
2024-02-20T22:31:00.104Z,7.02
2024-02-20T22:34:05.873Z,7.09
2024-02-20T22:37:15.630Z,7.13
2024-02-20T22:40:21.499Z,7.21
2024-02-20T22:43:27.679Z,7.20
2024-02-20T22:46:33.218Z,7.21
2024-02-20T22:49:39.641Z,7.18
2024-02-20T22:52:47.853Z,7.15
2024-02-20T22:55:54.025Z,7.15
2024-02-20T22:58:59.669Z,7.12
2024-02-20T23:02:07.369Z,7.09
2024-02-20T23:05:13.140Z,7.04
2024-02-20T23:08:22.070Z,6.97
2024-02-20T23:11:27.562Z,6.89
2024-02-20T23:14:33.907Z,6.81
2024-02-20T23:17:39.621Z,6.75
2024-02-20T23:20:46.292Z,6.76
2024-02-20T23:23:54.539Z,6.77
2024-02-20T23:27:01.038Z,6.77
2024-02-20T23:30:09.414Z,6.75
2024-02-20T23:33:16.007Z,6.75
2024-02-20T23:36:21.853Z,6.76
2024-02-20T23:39:30.908Z,6.76
2024-02-20T23:42:36.959Z,6.72
2024-02-20T23:45:43.418Z,6.67
2024-02-20T23:48:49.250Z,6.53
2024-02-20T23:51:55.676Z,6.51
2024-02-20T23:55:04.096Z,6.46
2024-02-20T23:58:10.600Z,6.43
